| time (UTC) | temp F | wind direction | speed MPH | gust MPH | rain 1hr in | rain 24hr in | rain mn in | humidity % | barometer mb |
| 20260504185523 | 68 | 267 | 6.0 | 19.0 | 0.00 | 0.00 | 0.00 | 44 | 1010.0 |
| 20260504185023 | 68 | 248 | 8.0 | 19.0 | 0.00 | 0.00 | 0.00 | 43 | 1010.1 |
| 20260504184549 | 68 | 269 | 6.0 | 16.0 | 0.00 | 0.00 | 0.00 | 44 | 1010.0 |
| 20260504184023 | 68 | 175 | 6.0 | 16.0 | 0.00 | 0.00 | 0.00 | 43 | 1010.2 |
| 20260504183522 | 68 | 178 | 6.0 | 20.0 | 0.00 | 0.00 | 0.00 | 44 | 1010.2 |
| 20260504183036 | 68 | 230 | 6.0 | 20.0 | 0.00 | 0.00 | 0.00 | 44 | 1010.3 |
| 20260504182527 | 68 | 259 | 6.0 | 14.0 | 0.00 | 0.00 | 0.00 | 43 | 1010.3 |
| 20260504182024 | 68 | 261 | 4.0 | 15.0 | 0.00 | 0.00 | 0.00 | 43 | 1010.4 |
| 20260504181535 | 68 | 265 | 4.0 | 15.0 | 0.00 | 0.00 | 0.00 | 43 | 1010.4 |
| 20260504181020 | 68 | 231 | 6.0 | 15.0 | 0.00 | 0.00 | 0.00 | 42 | 1010.4 |
| 20260504180524 | 68 | 148 | 5.0 | 13.0 | 0.00 | 0.00 | 0.00 | 41 | 1010.4 |
| 20260504180037 | 68 | 248 | 7.0 | 15.0 | 0.00 | 0.00 | 0.00 | 40 | 1010.7 |
| 20260504175523 | 68 | 144 | 5.0 | 15.0 | 0.00 | 0.00 | 0.00 | 39 | 1010.5 |
| 20260504175024 | 68 | 119 | 6.0 | 15.0 | 0.00 | 0.00 | 0.00 | 39 | 1010.6 |
| 20260504174539 | 68 | 162 | 7.0 | 24.0 | 0.00 | 0.00 | 0.00 | 37 | 1010.6 |
| 20260504174024 | 68 | 131 | 7.0 | 24.0 | 0.00 | 0.00 | 0.00 | 38 | 1010.7 |
| 20260504173523 | 68 | 223 | 5.0 | 15.0 | 0.00 | 0.00 | 0.00 | 37 | 1010.7 |
| 20260504173038 | 69 | 255 | 6.0 | 13.0 | 0.00 | 0.00 | 0.00 | 36 | 1010.7 |
| 20260504172523 | 69 | 176 | 6.0 | 13.0 | 0.00 | 0.00 | 0.00 | 36 | 1010.7 |
| 20260504172023 | 69 | 209 | 4.0 | 12.0 | 0.00 | 0.00 | 0.00 | 39 | 1010.7 |
| 20260504171541 | 68 | 223 | 3.0 | 13.0 | 0.00 | 0.00 | 0.00 | 38 | 1010.7 |
| 20260504171028 | 68 | 306 | 7.0 | 15.0 | 0.00 | 0.00 | 0.00 | 37 | 1010.7 |
| 20260504170523 | 68 | 173 | 6.0 | 15.0 | 0.00 | 0.00 | 0.00 | 38 | 1010.8 |
| 20260504151021 | 63 | 360 | 4.0 | 19.0 | 0.00 | 0.00 | 0.00 | 43 | 1012.4 |
| 20260504150526 | 63 | 360 | 3.0 | 19.0 | 0.00 | 0.00 | 0.00 | 43 | 1012.4 |
| 20260504141024 | 61 | 360 | 5.0 | 14.0 | 0.00 | 0.00 | 0.00 | 45 | 1012.8 |
| 20260504140522 | 60 | 360 | 5.0 | 14.0 | 0.00 | 0.00 | 0.00 | 46 | 1012.8 |
| 20260504130522 | 58 | 199 | 2.0 | 8.0 | 0.00 | 0.00 | 0.00 | 55 | 1013.2 |
| 20260504110520 | 37 | 0 | 0.0 | 0.0 | 0.00 | 0.00 | 0.00 | 92 | 1013.2 |
| 20260504100525 | 36 | 0 | 0.0 | 0.0 | 0.00 | 0.00 | 0.00 | 90 | 1013.1 |
| 20260504081538 | 36 | 0 | 0.0 | 0.0 | 0.00 | 0.00 | 0.00 | 88 | 1012.3 |
| 20260504081025 | 37 | 0 | 0.0 | 0.0 | 0.00 | 0.00 | 0.00 | 88 | 1012.2 |
| 20260504080522 | 37 | 0 | 0.0 | 0.0 | 0.00 | 0.00 | 0.00 | 87 | 1012.3 |
| 20260504050523 | 39 | 0 | 0.0 | 0.0 | 0.00 | 0.00 | 0.00 | 78 | 1011.9 |
| 20260504045522 | 39 | 0 | 0.0 | 1.0 | 0.00 | 0.00 | 0.00 | 78 | 1012.0 |
| 20260504045022 | 39 | 0 | 0.0 | 1.0 | 0.00 | 0.00 | 0.00 | 78 | 1011.9 |
| 20260504044538 | 39 | 0 | 0.0 | 1.0 | 0.00 | 0.00 | 0.00 | 77 | 1012.0 |
| 20260504044022 | 39 | 360 | 0.0 | 1.0 | 0.00 | 0.00 | 0.00 | 76 | 1012.0 |
| 20260504043531 | 40 | 0 | 0.0 | 2.0 | 0.00 | 0.00 | 0.00 | 76 | 1012.0 |
| 20260504043040 | 40 | 360 | 0.0 | 2.0 | 0.00 | 0.00 | 0.00 | 77 | 1012.1 |
| 20260504042523 | 40 | 0 | 0.0 | 1.0 | 0.00 | 0.00 | 0.00 | 76 | 1012.0 |
| 20260504042023 | 40 | 0 | 0.0 | 1.0 | 0.00 | 0.00 | 0.00 | 76 | 1012.0 |
| 20260504041538 | 40 | 0 | 0.0 | 1.0 | 0.00 | 0.00 | 0.00 | 76 | 1012.0 |
| 20260504041022 | 40 | 0 | 0.0 | 3.0 | 0.00 | 0.00 | 0.00 | 76 | 1011.8 |
| 20260504040523 | 40 | 0 | 0.0 | 3.0 | 0.00 | 0.00 | 0.00 | 75 | 1011.8 |
| 20260504040037 | 40 | 360 | 1.0 | 2.0 | 0.00 | 0.00 | 0.00 | 74 | 1011.9 |
| 20260504035525 | 41 | 0 | 0.0 | 1.0 | 0.00 | 0.00 | 0.00 | 74 | 1011.8 |
| 20260504035021 | 41 | 0 | 0.0 | 1.0 | 0.00 | 0.00 | 0.00 | 74 | 1011.8 |
| 20260504034535 | 41 | 0 | 0.0 | 1.0 | 0.00 | 0.00 | 0.00 | 73 | 1011.7 |
| 20260504034022 | 41 | 0 | 0.0 | 0.0 | 0.00 | 0.00 | 0.00 | 72 | 1011.8 |
| 20260504033523 | 41 | 0 | 0.0 | 0.0 | 0.00 | 0.00 | 0.00 | 72 | 1011.9 |
| 20260504033050 | 42 | 0 | 0.0 | 2.0 | 0.00 | 0.00 | 0.00 | 72 | 1011.7 |
| 20260504032524 | 42 | 0 | 0.0 | 2.0 | 0.00 | 0.00 | 0.00 | 71 | 1011.7 |
| 20260504032024 | 42 | 0 | 0.0 | 2.0 | 0.00 | 0.00 | 0.00 | 71 | 1011.7 |
| 20260504031545 | 42 | 360 | 0.0 | 1.0 | 0.00 | 0.00 | 0.00 | 70 | 1011.8 |
| 20260504031023 | 42 | 0 | 0.0 | 1.0 | 0.00 | 0.00 | 0.00 | 70 | 1011.7 |
| 20260504030523 | 43 | 0 | 0.0 | 1.0 | 0.00 | 0.00 | 0.00 | 69 | 1011.7 |
| 20260504030045 | 43 | 0 | 0.0 | 1.0 | 0.00 | 0.00 | 0.00 | 69 | 1011.7 |
| 20260504025524 | 43 | 0 | 0.0 | 1.0 | 0.00 | 0.00 | 0.00 | 68 | 1011.6 |
| 20260504025024 | 43 | 0 | 0.0 | 1.0 | 0.00 | 0.00 | 0.00 | 68 | 1011.6 |
| 20260504024542 | 43 | 360 | 0.0 | 2.0 | 0.00 | 0.00 | 0.00 | 67 | 1011.6 |
| 20260504024024 | 43 | 360 | 0.0 | 2.0 | 0.00 | 0.00 | 0.00 | 67 | 1011.7 |
| 20260504023524 | 44 | 360 | 0.0 | 2.0 | 0.00 | 0.00 | 0.00 | 66 | 1011.8 |
| 20260504023036 | 44 | 0 | 0.0 | 0.0 | 0.00 | 0.00 | 0.00 | 65 | 1011.8 |
| 20260504022528 | 44 | 0 | 0.0 | 0.0 | 0.00 | 0.00 | 0.00 | 65 | 1011.7 |
| 20260504022024 | 45 | 0 | 0.0 | 0.0 | 0.00 | 0.00 | 0.00 | 64 | 1011.6 |
| 20260504021539 | 45 | 0 | 0.0 | 0.0 | 0.00 | 0.00 | 0.00 | 61 | 1011.7 |
| 20260504021023 | 45 | 0 | 0.0 | 0.0 | 0.00 | 0.00 | 0.00 | 60 | 1011.6 |
| 20260504020525 | 45 | 0 | 0.0 | 0.0 | 0.00 | 0.00 | 0.00 | 61 | 1011.6 |
| 20260504020038 | 46 | 0 | 0.0 | 0.0 | 0.00 | 0.00 | 0.00 | 60 | 1011.6 |
| 20260504015525 | 46 | 0 | 0.0 | 0.0 | 0.00 | 0.00 | 0.00 | 57 | 1011.5 |
| 20260504015028 | 46 | 0 | 0.0 | 0.0 | 0.00 | 0.00 | 0.00 | 57 | 1011.5 |
| 20260504014540 | 47 | 0 | 0.0 | 0.0 | 0.00 | 0.00 | 0.00 | 56 | 1011.5 |
| 20260504014028 | 47 | 0 | 0.0 | 0.0 | 0.00 | 0.00 | 0.00 | 55 | 1011.4 |
| 20260504013524 | 47 | 0 | 0.0 | 0.0 | 0.00 | 0.00 | 0.00 | 56 | 1011.3 |
| 20260504013039 | 48 | 0 | 0.0 | 0.0 | 0.00 | 0.00 | 0.00 | 56 | 1011.2 |
| 20260504012524 | 48 | 0 | 0.0 | 0.0 | 0.00 | 0.00 | 0.00 | 56 | 1011.2 |
| 20260504012025 | 48 | 0 | 0.0 | 0.0 | 0.00 | 0.00 | 0.00 | 55 | 1011.1 |
| 20260504011535 | 48 | 0 | 0.0 | 0.0 | 0.00 | 0.00 | 0.00 | 53 | 1011.1 |
| 20260504011027 | 49 | 0 | 0.0 | 0.0 | 0.00 | 0.00 | 0.00 | 53 | 1011.1 |
| 20260504010523 | 49 | 0 | 0.0 | 0.0 | 0.00 | 0.00 | 0.00 | 52 | 1011.1 |
| 20260504010042 | 49 | 0 | 0.0 | 0.0 | 0.00 | 0.00 | 0.00 | 47 | 1011.0 |
| 20260504005524 | 50 | 0 | 0.0 | 0.0 | 0.00 | 0.00 | 0.00 | 47 | 1010.7 |
| 20260504005024 | 50 | 0 | 0.0 | 0.0 | 0.00 | 0.00 | 0.00 | 46 | 1010.8 |
| 20260504004540 | 50 | 0 | 0.0 | 0.0 | 0.00 | 0.00 | 0.00 | 45 | 1010.7 |
| 20260504004023 | 51 | 0 | 0.0 | 0.0 | 0.00 | 0.00 | 0.00 | 45 | 1010.6 |
| 20260504003523 | 51 | 0 | 0.0 | 1.0 | 0.00 | 0.00 | 0.00 | 44 | 1010.6 |
| 20260504003042 | 51 | 0 | 0.0 | 2.0 | 0.00 | 0.00 | 0.00 | 45 | 1010.6 |
| 20260504002527 | 52 | 0 | 0.0 | 2.0 | 0.00 | 0.00 | 0.00 | 46 | 1010.4 |
| 20260504002024 | 52 | 0 | 0.0 | 1.0 | 0.00 | 0.00 | 0.00 | 43 | 1010.4 |
| 20260504001537 | 53 | 0 | 0.0 | 1.0 | 0.00 | 0.00 | 0.00 | 41 | 1010.3 |
| 20260504001023 | 53 | 0 | 0.0 | 1.0 | 0.00 | 0.00 | 0.00 | 39 | 1010.0 |
| 20260504000522 | 53 | 0 | 0.0 | 1.0 | 0.00 | 0.00 | 0.00 | 38 | 1009.9 |
| 20260504000042 | 54 | 0 | 0.0 | 1.0 | 0.00 | 0.00 | 0.00 | 38 | 1010.0 |
| 20260503235523 | 54 | 0 | 0.0 | 1.0 | 0.00 | 0.00 | 0.00 | 38 | 1009.8 |
| 20260503235023 | 54 | 0 | 0.0 | 1.0 | 0.00 | 0.00 | 0.00 | 38 | 1009.7 |
| 20260503234535 | 54 | 0 | 0.0 | 1.0 | 0.00 | 0.00 | 0.00 | 37 | 1009.7 |
| 20260503234023 | 55 | 0 | 0.0 | 1.0 | 0.00 | 0.00 | 0.00 | 36 | 1009.7 |
| 20260503233525 | 55 | 0 | 0.0 | 4.0 | 0.00 | 0.00 | 0.00 | 36 | 1009.6 |
| 20260503233042 | 55 | 0 | 0.0 | 4.0 | 0.00 | 0.00 | 0.00 | 36 | 1009.5 |
| 20260503232523 | 55 | 36 | 0.0 | 5.0 | 0.00 | 0.00 | 0.00 | 36 | 1009.5 |
| 20260503232023 | 55 | 360 | 1.0 | 5.0 | 0.00 | 0.00 | 0.00 | 35 | 1009.5 |
| 20260503231538 | 55 | 360 | 1.0 | 4.0 | 0.00 | 0.00 | 0.00 | 35 | 1009.5 |
| 20260503231026 | 55 | 360 | 1.0 | 5.0 | 0.00 | 0.00 | 0.00 | 35 | 1009.4 |
| 20260503230525 | 56 | 360 | 1.0 | 5.0 | 0.00 | 0.00 | 0.00 | 35 | 1009.4 |
| 20260503230040 | 56 | 360 | 1.0 | 5.0 | 0.00 | 0.00 | 0.00 | 34 | 1009.4 |
| 20260503225521 | 56 | 0 | 1.0 | 8.0 | 0.00 | 0.00 | 0.00 | 34 | 1009.3 |
| 20260503225023 | 56 | 360 | 1.0 | 9.0 | 0.00 | 0.00 | 0.00 | 34 | 1009.4 |
| 20260503224536 | 56 | 360 | 3.0 | 11.0 | 0.00 | 0.00 | 0.00 | 34 | 1009.4 |
| 20260503224023 | 56 | 360 | 4.0 | 13.0 | 0.00 | 0.00 | 0.00 | 33 | 1009.4 |
| 20260503223523 | 56 | 360 | 4.0 | 13.0 | 0.00 | 0.00 | 0.00 | 34 | 1009.3 |
| 20260503223035 | 56 | 360 | 5.0 | 13.0 | 0.00 | 0.00 | 0.00 | 33 | 1009.2 |
| 20260503222524 | 56 | 0 | 3.0 | 13.0 | 0.00 | 0.00 | 0.00 | 34 | 1009.0 |
| 20260503222022 | 56 | 360 | 2.0 | 8.0 | 0.00 | 0.00 | 0.00 | 34 | 1009.0 |
| 20260503221542 | 56 | 360 | 2.0 | 10.0 | 0.00 | 0.00 | 0.00 | 34 | 1009.0 |
| 20260503221023 | 56 | 360 | 2.0 | 10.0 | 0.00 | 0.00 | 0.00 | 34 | 1009.0 |
| 20260503220524 | 56 | 360 | 4.0 | 9.0 | 0.00 | 0.00 | 0.00 | 34 | 1009.0 |
| 20260503220039 | 56 | 360 | 4.0 | 13.0 | 0.00 | 0.00 | 0.00 | 34 | 1009.1 |
| 20260503215523 | 56 | 360 | 3.0 | 13.0 | 0.00 | 0.00 | 0.00 | 33 | 1009.2 |
| 20260503215023 | 57 | 360 | 2.0 | 11.0 | 0.00 | 0.00 | 0.00 | 34 | 1009.1 |
| 20260503214538 | 56 | 304 | 3.0 | 11.0 | 0.00 | 0.00 | 0.00 | 34 | 1008.9 |
| 20260503214024 | 56 | 329 | 2.0 | 14.0 | 0.00 | 0.00 | 0.00 | 35 | 1009.1 |
| 20260503213524 | 56 | 360 | 3.0 | 14.0 | 0.00 | 0.00 | 0.00 | 35 | 1009.0 |
| 20260503213037 | 56 | 360 | 4.0 | 15.0 | 0.00 | 0.00 | 0.00 | 35 | 1008.9 |
| 20260503212522 | 56 | 302 | 4.0 | 15.0 | 0.00 | 0.00 | 0.00 | 34 | 1008.9 |
| 20260503212024 | 56 | 321 | 5.0 | 18.0 | 0.00 | 0.00 | 0.00 | 33 | 1009.0 |
| 20260503211535 | 56 | 42 | 5.0 | 18.0 | 0.00 | 0.00 | 0.00 | 34 | 1008.9 |
| 20260503211024 | 56 | 342 | 5.0 | 17.0 | 0.00 | 0.00 | 0.00 | 34 | 1009.2 |
| 20260503210523 | 57 | 349 | 3.0 | 17.0 | 0.00 | 0.00 | 0.00 | 34 | 1009.1 |
| 20260503210040 | 57 | 293 | 5.0 | 17.0 | 0.00 | 0.00 | 0.00 | 34 | 1009.1 |
| 20260503205524 | 56 | 320 | 4.0 | 18.0 | 0.00 | 0.00 | 0.00 | 35 | 1008.8 |
| 20260503205024 | 56 | 225 | 6.0 | 18.0 | 0.00 | 0.00 | 0.00 | 34 | 1008.8 |
| 20260503204538 | 56 | 360 | 6.0 | 19.0 | 0.00 | 0.00 | 0.00 | 34 | 1008.9 |
| 20260503204023 | 56 | 49 | 7.0 | 19.0 | 0.00 | 0.00 | 0.00 | 34 | 1008.9 |
| 20260503203530 | 56 | 334 | 3.0 | 12.0 | 0.00 | 0.00 | 0.00 | 36 | 1008.9 |
| 20260503203043 | 56 | 177 | 5.0 | 14.0 | 0.00 | 0.00 | 0.00 | 35 | 1008.9 |
| 20260503202523 | 56 | 348 | 6.0 | 14.0 | 0.00 | 0.00 | 0.00 | 35 | 1008.9 |
| 20260503202026 | 56 | 352 | 4.0 | 14.0 | 0.00 | 0.00 | 0.00 | 35 | 1008.9 |
| 20260503201537 | 56 | 11 | 5.0 | 14.0 | 0.00 | 0.00 | 0.00 | 35 | 1009.0 |
| 20260503201023 | 56 | 5 | 7.0 | 16.0 | 0.00 | 0.00 | 0.00 | 35 | 1009.0 |
| 20260503200525 | 56 | 28 | 5.0 | 16.0 | 0.00 | 0.00 | 0.00 | 35 | 1008.9 |
| 20260503200037 | 56 | 297 | 6.0 | 19.0 | 0.00 | 0.00 | 0.00 | 35 | 1009.0 |
| 20260503195523 | 56 | 5 | 3.0 | 19.0 | 0.00 | 0.00 | 0.00 | 35 | 1009.0 |
| 20260503195024 | 56 | 35 | 7.0 | 19.0 | 0.00 | 0.00 | 0.00 | 35 | 1009.2 |
| 20260503194539 | 56 | 360 | 4.0 | 13.0 | 0.00 | 0.00 | 0.00 | 36 | 1009.0 |
| 20260503194024 | 55 | 360 | 3.0 | 10.0 | 0.00 | 0.00 | 0.00 | 35 | 1008.9 |
| 20260503193527 | 56 | 360 | 4.0 | 12.0 | 0.00 | 0.00 | 0.00 | 35 | 1008.9 |
| 20260503193039 | 56 | 360 | 6.0 | 12.0 | 0.00 | 0.00 | 0.00 | 35 | 1009.0 |
| 20260503192521 | 56 | 360 | 4.0 | 19.0 | 0.00 | 0.00 | 0.00 | 34 | 1009.0 |
| 20260503192024 | 57 | 360 | 4.0 | 19.0 | 0.00 | 0.00 | 0.00 | 34 | 1008.9 |
| 20260503191537 | 57 | 325 | 6.0 | 15.0 | 0.00 | 0.00 | 0.00 | 33 | 1009.0 |
| 20260503191023 | 58 | 360 | 5.0 | 13.0 | 0.00 | 0.00 | 0.00 | 33 | 1009.0 |
| 20260503190524 | 57 | 360 | 4.0 | 14.0 | 0.00 | 0.00 | 0.00 | 33 | 1008.7 |
| 20260503190037 | 57 | 360 | 5.0 | 17.0 | 0.00 | 0.00 | 0.00 | 35 | 1009.0 |